sensor_id;sensor_type;location;lat;lon;timestamp;temperature;humidity
6256;DHT22;3161;48.794;9.784;2023-05-29T00:02:20;13.50;99.90
6256;DHT22;3161;48.794;9.784;2023-05-29T00:04:47;13.50;99.90
6256;DHT22;3161;48.794;9.784;2023-05-29T00:07:17;13.40;99.90
6256;DHT22;3161;48.794;9.784;2023-05-29T00:09:44;13.30;99.90
6256;DHT22;3161;48.794;9.784;2023-05-29T00:12:11;13.30;99.90
6256;DHT22;3161;48.794;9.784;2023-05-29T00:14:40;13.20;99.90
6256;DHT22;3161;48.794;9.784;2023-05-29T00:17:07;13.20;99.90
6256;DHT22;3161;48.794;9.784;2023-05-29T00:19:35;13.20;99.90
6256;DHT22;3161;48.794;9.784;2023-05-29T00:22:03;13.10;99.90
6256;DHT22;3161;48.794;9.784;2023-05-29T00:24:31;13.10;99.90
6256;DHT22;3161;48.794;9.784;2023-05-29T00:26:58;13.10;99.90
6256;DHT22;3161;48.794;9.784;2023-05-29T00:29:27;13.00;99.90
6256;DHT22;3161;48.794;9.784;2023-05-29T00:31:55;13.00;99.90
6256;DHT22;3161;48.794;9.784;2023-05-29T00:34:23;13.00;99.90
6256;DHT22;3161;48.794;9.784;2023-05-29T00:36:51;12.90;99.90
6256;DHT22;3161;48.794;9.784;2023-05-29T00:39:21;12.90;99.90
6256;DHT22;3161;48.794;9.784;2023-05-29T00:41:49;12.80;99.90
6256;DHT22;3161;48.794;9.784;2023-05-29T00:44:21;12.80;99.90
6256;DHT22;3161;48.794;9.784;2023-05-29T00:46:51;12.80;99.90
6256;DHT22;3161;48.794;9.784;2023-05-29T00:49:21;12.80;99.90
6256;DHT22;3161;48.794;9.784;2023-05-29T00:51:51;12.80;99.90
6256;DHT22;3161;48.794;9.784;2023-05-29T00:54:28;12.70;99.90
6256;DHT22;3161;48.794;9.784;2023-05-29T00:56:57;12.70;99.90
6256;DHT22;3161;48.794;9.784;2023-05-29T00:59:31;12.60;99.90
6256;DHT22;3161;48.794;9.784;2023-05-29T01:02:02;12.70;99.90
6256;DHT22;3161;48.794;9.784;2023-05-29T01:04:30;12.60;99.90
6256;DHT22;3161;48.794;9.784;2023-05-29T01:07:03;12.50;99.90
6256;DHT22;3161;48.794;9.784;2023-05-29T01:09:31;12.50;99.90
6256;DHT22;3161;48.794;9.784;2023-05-29T01:18:12;12.30;99.90
6256;DHT22;3161;48.794;9.784;2023-05-29T01:20:42;12.30;99.90
6256;DHT22;3161;48.794;9.784;2023-05-29T01:28:56;12.20;99.90
6256;DHT22;3161;48.794;9.784;2023-05-29T01:31:26;12.20;99.90
6256;DHT22;3161;48.794;9.784;2023-05-29T01:33:55;12.10;99.90
6256;DHT22;3161;48.794;9.784;2023-05-29T01:36:24;12.10;99.90
6256;DHT22;3161;48.794;9.784;2023-05-29T01:38:54;12.10;99.90
6256;DHT22;3161;48.794;9.784;2023-05-29T01:41:23;12.10;99.90
6256;DHT22;3161;48.794;9.784;2023-05-29T01:43:51;12.00;99.90
6256;DHT22;3161;48.794;9.784;2023-05-29T01:46:20;12.00;99.90
6256;DHT22;3161;48.794;9.784;2023-05-29T01:48:47;12.00;99.90
6256;DHT22;3161;48.794;9.784;2023-05-29T01:51:22;12.00;99.90
6256;DHT22;3161;48.794;9.784;2023-05-29T01:53:50;12.00;99.90
6256;DHT22;3161;48.794;9.784;2023-05-29T01:56:19;11.90;99.90
6256;DHT22;3161;48.794;9.784;2023-05-29T01:58:46;11.90;99.90
6256;DHT22;3161;48.794;9.784;2023-05-29T02:01:15;11.90;99.90
6256;DHT22;3161;48.794;9.784;2023-05-29T02:03:42;11.90;99.90
6256;DHT22;3161;48.794;9.784;2023-05-29T02:06:10;11.90;99.90
6256;DHT22;3161;48.794;9.784;2023-05-29T02:08:37;11.80;99.90
6256;DHT22;3161;48.794;9.784;2023-05-29T02:11:05;11.80;99.90
6256;DHT22;3161;48.794;9.784;2023-05-29T02:13:33;11.80;99.90
6256;DHT22;3161;48.794;9.784;2023-05-29T02:16:01;11.80;99.90
6256;DHT22;3161;48.794;9.784;2023-05-29T02:18:29;11.80;99.90
6256;DHT22;3161;48.794;9.784;2023-05-29T02:20:57;11.80;99.90
6256;DHT22;3161;48.794;9.784;2023-05-29T02:23:25;11.70;99.90
6256;DHT22;3161;48.794;9.784;2023-05-29T02:25:52;11.70;99.90
6256;DHT22;3161;48.794;9.784;2023-05-29T02:28:20;11.70;99.90
6256;DHT22;3161;48.794;9.784;2023-05-29T02:30:47;11.70;99.90
6256;DHT22;3161;48.794;9.784;2023-05-29T02:33:15;11.60;99.90
6256;DHT22;3161;48.794;9.784;2023-05-29T02:35:42;11.60;99.90
6256;DHT22;3161;48.794;9.784;2023-05-29T02:38:10;11.60;99.90
6256;DHT22;3161;48.794;9.784;2023-05-29T02:40:37;11.60;99.90
6256;DHT22;3161;48.794;9.784;2023-05-29T02:43:05;11.50;99.90
6256;DHT22;3161;48.794;9.784;2023-05-29T02:45:33;11.50;99.90
6256;DHT22;3161;48.794;9.784;2023-05-29T02:48:00;11.50;99.90
6256;DHT22;3161;48.794;9.784;2023-05-29T02:50:28;11.50;99.90
6256;DHT22;3161;48.794;9.784;2023-05-29T02:52:56;11.40;99.90
6256;DHT22;3161;48.794;9.784;2023-05-29T02:55:23;11.40;99.90
6256;DHT22;3161;48.794;9.784;2023-05-29T02:57:51;11.40;99.90
6256;DHT22;3161;48.794;9.784;2023-05-29T03:00:20;11.40;99.90
6256;DHT22;3161;48.794;9.784;2023-05-29T03:02:48;11.30;99.90
6256;DHT22;3161;48.794;9.784;2023-05-29T03:05:15;11.30;99.90
6256;DHT22;3161;48.794;9.784;2023-05-29T03:07:43;11.30;99.90
6256;DHT22;3161;48.794;9.784;2023-05-29T03:10:11;11.30;99.90
6256;DHT22;3161;48.794;9.784;2023-05-29T03:12:39;11.30;99.90
6256;DHT22;3161;48.794;9.784;2023-05-29T03:15:08;11.20;99.90
6256;DHT22;3161;48.794;9.784;2023-05-29T03:17:36;11.20;99.90
6256;DHT22;3161;48.794;9.784;2023-05-29T03:20:05;11.20;99.90
6256;DHT22;3161;48.794;9.784;2023-05-29T03:22:37;11.10;99.90
6256;DHT22;3161;48.794;9.784;2023-05-29T03:25:06;11.10;99.90
6256;DHT22;3161;48.794;9.784;2023-05-29T03:27:33;11.10;99.90
6256;DHT22;3161;48.794;9.784;2023-05-29T03:30:01;11.10;99.90
6256;DHT22;3161;48.794;9.784;2023-05-29T03:32:29;11.10;99.90
6256;DHT22;3161;48.794;9.784;2023-05-29T03:34:57;11.00;99.90
6256;DHT22;3161;48.794;9.784;2023-05-29T03:37:24;11.00;99.90
6256;DHT22;3161;48.794;9.784;2023-05-29T03:39:52;11.00;99.90
6256;DHT22;3161;48.794;9.784;2023-05-29T03:42:20;11.00;99.90
6256;DHT22;3161;48.794;9.784;2023-05-29T03:44:48;11.00;99.90
6256;DHT22;3161;48.794;9.784;2023-05-29T03:47:15;10.90;99.90
6256;DHT22;3161;48.794;9.784;2023-05-29T03:49:43;10.90;99.90
6256;DHT22;3161;48.794;9.784;2023-05-29T03:52:10;10.90;99.90
6256;DHT22;3161;48.794;9.784;2023-05-29T03:54:38;10.90;99.90
6256;DHT22;3161;48.794;9.784;2023-05-29T03:57:06;10.90;99.90
6256;DHT22;3161;48.794;9.784;2023-05-29T03:59:35;10.90;99.90
6256;DHT22;3161;48.794;9.784;2023-05-29T04:02:03;10.90;99.90
6256;DHT22;3161;48.794;9.784;2023-05-29T04:04:30;10.90;99.90
6256;DHT22;3161;48.794;9.784;2023-05-29T04:06:58;10.90;99.90
6256;DHT22;3161;48.794;9.784;2023-05-29T04:09:25;10.80;99.90
6256;DHT22;3161;48.794;9.784;2023-05-29T04:11:53;10.90;99.90
6256;DHT22;3161;48.794;9.784;2023-05-29T04:14:21;10.90;99.90
6256;DHT22;3161;48.794;9.784;2023-05-29T04:16:48;10.90;99.90
6256;DHT22;3161;48.794;9.784;2023-05-29T04:19:16;10.90;99.90
6256;DHT22;3161;48.794;9.784;2023-05-29T04:21:43;10.90;99.90
6256;DHT22;3161;48.794;9.784;2023-05-29T04:24:11;10.90;99.90
6256;DHT22;3161;48.794;9.784;2023-05-29T04:26:39;10.90;99.90
6256;DHT22;3161;48.794;9.784;2023-05-29T04:29:08;11.00;99.90
6256;DHT22;3161;48.794;9.784;2023-05-29T04:31:36;11.00;99.90
6256;DHT22;3161;48.794;9.784;2023-05-29T04:34:03;11.10;99.90
6256;DHT22;3161;48.794;9.784;2023-05-29T04:36:31;11.10;99.90
6256;DHT22;3161;48.794;9.784;2023-05-29T04:39:00;11.10;99.90
6256;DHT22;3161;48.794;9.784;2023-05-29T04:41:28;11.20;99.90
6256;DHT22;3161;48.794;9.784;2023-05-29T04:43:58;11.20;99.90
6256;DHT22;3161;48.794;9.784;2023-05-29T04:46:26;11.30;99.90
6256;DHT22;3161;48.794;9.784;2023-05-29T04:48:53;11.40;99.90
6256;DHT22;3161;48.794;9.784;2023-05-29T04:51:21;11.50;99.90
6256;DHT22;3161;48.794;9.784;2023-05-29T04:53:50;11.60;99.90
6256;DHT22;3161;48.794;9.784;2023-05-29T04:56:20;11.60;99.90
6256;DHT22;3161;48.794;9.784;2023-05-29T04:58:48;11.70;99.90
6256;DHT22;3161;48.794;9.784;2023-05-29T05:01:17;11.80;99.90
6256;DHT22;3161;48.794;9.784;2023-05-29T05:03:44;11.80;99.90
6256;DHT22;3161;48.794;9.784;2023-05-29T05:06:12;11.90;99.90
6256;DHT22;3161;48.794;9.784;2023-05-29T05:08:41;12.00;99.90
6256;DHT22;3161;48.794;9.784;2023-05-29T05:11:09;12.10;99.90
6256;DHT22;3161;48.794;9.784;2023-05-29T05:13:36;12.20;99.90
6256;DHT22;3161;48.794;9.784;2023-05-29T05:16:04;12.30;99.90
6256;DHT22;3161;48.794;9.784;2023-05-29T05:18:32;12.30;99.90
6256;DHT22;3161;48.794;9.784;2023-05-29T05:20:59;12.50;99.90
6256;DHT22;3161;48.794;9.784;2023-05-29T05:23:27;12.60;99.90
6256;DHT22;3161;48.794;9.784;2023-05-29T05:25:54;12.70;99.90
6256;DHT22;3161;48.794;9.784;2023-05-29T05:28:22;12.80;99.90
6256;DHT22;3161;48.794;9.784;2023-05-29T05:30:49;12.90;99.90
6256;DHT22;3161;48.794;9.784;2023-05-29T05:33:18;13.10;99.90
6256;DHT22;3161;48.794;9.784;2023-05-29T05:35:45;13.20;99.90
6256;DHT22;3161;48.794;9.784;2023-05-29T05:38:13;13.30;99.90
6256;DHT22;3161;48.794;9.784;2023-05-29T05:40:40;13.50;99.90
6256;DHT22;3161;48.794;9.784;2023-05-29T05:43:09;13.60;99.90
6256;DHT22;3161;48.794;9.784;2023-05-29T05:45:37;13.70;99.90
6256;DHT22;3161;48.794;9.784;2023-05-29T05:48:06;13.90;99.90
6256;DHT22;3161;48.794;9.784;2023-05-29T05:50:34;14.00;99.90
6256;DHT22;3161;48.794;9.784;2023-05-29T05:53:01;14.10;99.90
6256;DHT22;3161;48.794;9.784;2023-05-29T05:55:29;14.20;99.90
6256;DHT22;3161;48.794;9.784;2023-05-29T05:57:56;14.40;99.90
6256;DHT22;3161;48.794;9.784;2023-05-29T06:00:24;14.50;99.90
6256;DHT22;3161;48.794;9.784;2023-05-29T06:02:52;14.70;99.90
6256;DHT22;3161;48.794;9.784;2023-05-29T06:05:19;14.80;99.90
6256;DHT22;3161;48.794;9.784;2023-05-29T06:07:47;15.00;99.90
6256;DHT22;3161;48.794;9.784;2023-05-29T06:10:15;15.10;99.90
6256;DHT22;3161;48.794;9.784;2023-05-29T06:12:42;15.30;99.90
6256;DHT22;3161;48.794;9.784;2023-05-29T06:15:10;15.40;99.90
6256;DHT22;3161;48.794;9.784;2023-05-29T06:17:37;15.60;99.90
6256;DHT22;3161;48.794;9.784;2023-05-29T06:20:25;15.80;99.90
6256;DHT22;3161;48.794;9.784;2023-05-29T06:22:52;16.00;99.90
6256;DHT22;3161;48.794;9.784;2023-05-29T06:25:20;16.20;99.90
6256;DHT22;3161;48.794;9.784;2023-05-29T06:27:48;16.40;99.90
6256;DHT22;3161;48.794;9.784;2023-05-29T06:30:15;16.60;99.90
6256;DHT22;3161;48.794;9.784;2023-05-29T06:32:43;16.80;99.90
6256;DHT22;3161;48.794;9.784;2023-05-29T06:35:10;17.00;99.90
6256;DHT22;3161;48.794;9.784;2023-05-29T06:37:38;17.20;99.90
6256;DHT22;3161;48.794;9.784;2023-05-29T06:40:06;17.50;99.90
6256;DHT22;3161;48.794;9.784;2023-05-29T06:42:34;17.70;99.90
6256;DHT22;3161;48.794;9.784;2023-05-29T06:45:02;17.90;99.90
6256;DHT22;3161;48.794;9.784;2023-05-29T06:47:29;18.20;99.90
6256;DHT22;3161;48.794;9.784;2023-05-29T06:49:57;18.40;99.90
6256;DHT22;3161;48.794;9.784;2023-05-29T06:52:25;18.60;99.90
6256;DHT22;3161;48.794;9.784;2023-05-29T06:54:52;18.80;99.90
6256;DHT22;3161;48.794;9.784;2023-05-29T06:57:20;19.00;99.90
6256;DHT22;3161;48.794;9.784;2023-05-29T06:59:48;19.20;99.90
6256;DHT22;3161;48.794;9.784;2023-05-29T07:02:15;19.50;99.90
6256;DHT22;3161;48.794;9.784;2023-05-29T07:04:43;19.70;99.90
6256;DHT22;3161;48.794;9.784;2023-05-29T07:07:11;20.00;99.90
6256;DHT22;3161;48.794;9.784;2023-05-29T07:09:38;20.20;99.90
6256;DHT22;3161;48.794;9.784;2023-05-29T07:12:06;20.40;99.90
6256;DHT22;3161;48.794;9.784;2023-05-29T07:14:34;20.70;99.90
6256;DHT22;3161;48.794;9.784;2023-05-29T07:17:01;20.90;99.90
6256;DHT22;3161;48.794;9.784;2023-05-29T07:19:29;21.10;99.90
6256;DHT22;3161;48.794;9.784;2023-05-29T07:21:58;21.30;99.90
6256;DHT22;3161;48.794;9.784;2023-05-29T07:24:26;21.60;99.90
6256;DHT22;3161;48.794;9.784;2023-05-29T07:26:53;21.80;99.90
6256;DHT22;3161;48.794;9.784;2023-05-29T07:29:21;22.00;99.40
6256;DHT22;3161;48.794;9.784;2023-05-29T07:31:52;22.20;99.20
6256;DHT22;3161;48.794;9.784;2023-05-29T07:34:20;22.30;98.90
6256;DHT22;3161;48.794;9.784;2023-05-29T07:37:06;22.50;97.50
6256;DHT22;3161;48.794;9.784;2023-05-29T07:39:35;22.70;96.20
6256;DHT22;3161;48.794;9.784;2023-05-29T07:42:03;22.90;95.60
6256;DHT22;3161;48.794;9.784;2023-05-29T07:44:32;23.00;94.50
6256;DHT22;3161;48.794;9.784;2023-05-29T07:46:59;23.20;94.60
6256;DHT22;3161;48.794;9.784;2023-05-29T07:49:27;23.30;93.90
6256;DHT22;3161;48.794;9.784;2023-05-29T07:51:54;23.40;92.70
6256;DHT22;3161;48.794;9.784;2023-05-29T07:54:22;23.60;94.40
6256;DHT22;3161;48.794;9.784;2023-05-29T07:56:49;23.70;92.50
6256;DHT22;3161;48.794;9.784;2023-05-29T07:59:17;23.90;92.70
6256;DHT22;3161;48.794;9.784;2023-05-29T08:01:45;24.00;92.30
6256;DHT22;3161;48.794;9.784;2023-05-29T08:04:13;24.10;91.70
6256;DHT22;3161;48.794;9.784;2023-05-29T08:06:41;24.30;91.90
6256;DHT22;3161;48.794;9.784;2023-05-29T08:09:10;24.40;91.30
6256;DHT22;3161;48.794;9.784;2023-05-29T08:11:37;24.50;90.50
6256;DHT22;3161;48.794;9.784;2023-05-29T08:14:05;24.60;90.70
6256;DHT22;3161;48.794;9.784;2023-05-29T08:16:32;24.70;90.70
6256;DHT22;3161;48.794;9.784;2023-05-29T08:19:00;24.80;90.30
6256;DHT22;3161;48.794;9.784;2023-05-29T08:21:27;25.00;90.60
6256;DHT22;3161;48.794;9.784;2023-05-29T08:23:55;25.10;88.60
6256;DHT22;3161;48.794;9.784;2023-05-29T08:26:23;25.20;88.60
6256;DHT22;3161;48.794;9.784;2023-05-29T08:28:50;25.30;86.90
6256;DHT22;3161;48.794;9.784;2023-05-29T08:31:18;25.40;87.70
6256;DHT22;3161;48.794;9.784;2023-05-29T08:33:46;25.50;86.10
6256;DHT22;3161;48.794;9.784;2023-05-29T08:36:13;25.60;86.70
6256;DHT22;3161;48.794;9.784;2023-05-29T08:38:41;25.70;84.60
6256;DHT22;3161;48.794;9.784;2023-05-29T08:41:10;25.70;83.50
6256;DHT22;3161;48.794;9.784;2023-05-29T08:43:40;25.80;82.60
6256;DHT22;3161;48.794;9.784;2023-05-29T08:46:09;25.90;79.60
6256;DHT22;3161;48.794;9.784;2023-05-29T08:48:39;25.90;79.90
6256;DHT22;3161;48.794;9.784;2023-05-29T08:51:08;26.00;77.50
6256;DHT22;3161;48.794;9.784;2023-05-29T08:53:37;26.00;79.90
6256;DHT22;3161;48.794;9.784;2023-05-29T08:56:05;26.10;76.20
6256;DHT22;3161;48.794;9.784;2023-05-29T08:58:33;26.30;73.40
6256;DHT22;3161;48.794;9.784;2023-05-29T09:01:02;26.30;75.20
6256;DHT22;3161;48.794;9.784;2023-05-29T09:03:29;26.40;73.30
6256;DHT22;3161;48.794;9.784;2023-05-29T09:06:00;26.50;70.90
6256;DHT22;3161;48.794;9.784;2023-05-29T09:08:30;26.60;70.20
6256;DHT22;3161;48.794;9.784;2023-05-29T09:10:59;26.60;68.70
6256;DHT22;3161;48.794;9.784;2023-05-29T09:13:27;26.70;70.20
6256;DHT22;3161;48.794;9.784;2023-05-29T09:16:00;26.70;66.90
6256;DHT22;3161;48.794;9.784;2023-05-29T09:18:30;26.80;67.70
6256;DHT22;3161;48.794;9.784;2023-05-29T09:20:59;26.80;68.90
6256;DHT22;3161;48.794;9.784;2023-05-29T09:23:26;26.80;66.00
6256;DHT22;3161;48.794;9.784;2023-05-29T09:25:54;26.60;64.00
6256;DHT22;3161;48.794;9.784;2023-05-29T09:28:22;26.60;68.30
6256;DHT22;3161;48.794;9.784;2023-05-29T09:30:54;26.50;65.00
6256;DHT22;3161;48.794;9.784;2023-05-29T09:33:22;26.50;66.20
6256;DHT22;3161;48.794;9.784;2023-05-29T09:35:50;26.60;65.90
6256;DHT22;3161;48.794;9.784;2023-05-29T09:38:19;26.60;62.60
6256;DHT22;3161;48.794;9.784;2023-05-29T09:40:47;26.60;64.10
6256;DHT22;3161;48.794;9.784;2023-05-29T09:43:17;26.60;63.90
6256;DHT22;3161;48.794;9.784;2023-05-29T09:45:46;26.60;65.10
6256;DHT22;3161;48.794;9.784;2023-05-29T09:48:23;26.60;64.30
6256;DHT22;3161;48.794;9.784;2023-05-29T09:50:48;26.50;62.90
6256;DHT22;3161;48.794;9.784;2023-05-29T09:53:22;26.60;64.70
6256;DHT22;3161;48.794;9.784;2023-05-29T09:55:53;26.60;61.30
6256;DHT22;3161;48.794;9.784;2023-05-29T09:58:22;26.70;62.60
6256;DHT22;3161;48.794;9.784;2023-05-29T10:00:51;26.60;60.00
6256;DHT22;3161;48.794;9.784;2023-05-29T10:03:20;26.70;62.20
6256;DHT22;3161;48.794;9.784;2023-05-29T10:05:52;26.70;62.40
6256;DHT22;3161;48.794;9.784;2023-05-29T10:08:21;26.70;61.30
6256;DHT22;3161;48.794;9.784;2023-05-29T10:11:00;26.70;59.00
6256;DHT22;3161;48.794;9.784;2023-05-29T10:13:33;26.60;58.30
6256;DHT22;3161;48.794;9.784;2023-05-29T10:16:01;26.60;57.00
6256;DHT22;3161;48.794;9.784;2023-05-29T10:18:32;26.50;54.70
6256;DHT22;3161;48.794;9.784;2023-05-29T10:21:02;26.50;56.00
6256;DHT22;3161;48.794;9.784;2023-05-29T10:23:31;26.50;56.60
6256;DHT22;3161;48.794;9.784;2023-05-29T10:26:14;26.60;55.80
6256;DHT22;3161;48.794;9.784;2023-05-29T10:28:44;26.60;55.10
6256;DHT22;3161;48.794;9.784;2023-05-29T10:31:18;26.70;56.10
6256;DHT22;3161;48.794;9.784;2023-05-29T10:36:44;26.80;53.70
6256;DHT22;3161;48.794;9.784;2023-05-29T10:39:10;26.80;55.50
6256;DHT22;3161;48.794;9.784;2023-05-29T10:41:38;26.80;55.30
6256;DHT22;3161;48.794;9.784;2023-05-29T10:44:53;26.80;55.40
6256;DHT22;3161;48.794;9.784;2023-05-29T10:49:17;26.90;52.50
6256;DHT22;3161;48.794;9.784;2023-05-29T10:51:45;26.90;52.70
6256;DHT22;3161;48.794;9.784;2023-05-29T10:54:13;26.90;52.60
6256;DHT22;3161;48.794;9.784;2023-05-29T10:56:55;27.00;52.10
6256;DHT22;3161;48.794;9.784;2023-05-29T10:59:23;27.10;51.70
6256;DHT22;3161;48.794;9.784;2023-05-29T11:01:55;27.10;51.90
6256;DHT22;3161;48.794;9.784;2023-05-29T11:04:25;27.10;51.70
6256;DHT22;3161;48.794;9.784;2023-05-29T11:06:53;27.10;51.40
6256;DHT22;3161;48.794;9.784;2023-05-29T11:09:32;27.10;52.80
6256;DHT22;3161;48.794;9.784;2023-05-29T11:12:24;27.10;53.20
6256;DHT22;3161;48.794;9.784;2023-05-29T11:14:56;27.10;53.60
6256;DHT22;3161;48.794;9.784;2023-05-29T11:17:52;27.10;52.50
6256;DHT22;3161;48.794;9.784;2023-05-29T11:20:04;27.10;52.10
6256;DHT22;3161;48.794;9.784;2023-05-29T11:25:08;27.00;53.30
6256;DHT22;3161;48.794;9.784;2023-05-29T11:27:36;27.10;52.40
6256;DHT22;3161;48.794;9.784;2023-05-29T11:30:05;27.00;52.70
6256;DHT22;3161;48.794;9.784;2023-05-29T11:32:36;27.00;54.90
6256;DHT22;3161;48.794;9.784;2023-05-29T11:35:11;27.10;54.50
6256;DHT22;3161;48.794;9.784;2023-05-29T11:37:36;27.20;52.90
6256;DHT22;3161;48.794;9.784;2023-05-29T11:40:06;27.40;52.00
6256;DHT22;3161;48.794;9.784;2023-05-29T11:42:55;27.40;52.00
6256;DHT22;3161;48.794;9.784;2023-05-29T11:45:23;27.50;49.70
6256;DHT22;3161;48.794;9.784;2023-05-29T11:47:56;27.50;49.50
6256;DHT22;3161;48.794;9.784;2023-05-29T11:50:26;27.50;50.00
6256;DHT22;3161;48.794;9.784;2023-05-29T11:52:53;27.60;51.40
6256;DHT22;3161;48.794;9.784;2023-05-29T11:55:22;27.60;51.40
6256;DHT22;3161;48.794;9.784;2023-05-29T11:57:52;27.70;51.30
6256;DHT22;3161;48.794;9.784;2023-05-29T12:00:20;27.60;51.80
6256;DHT22;3161;48.794;9.784;2023-05-29T12:02:48;27.60;51.20
6256;DHT22;3161;48.794;9.784;2023-05-29T12:05:17;27.70;50.30
6256;DHT22;3161;48.794;9.784;2023-05-29T12:07:53;27.70;50.20
6256;DHT22;3161;48.794;9.784;2023-05-29T12:10:23;27.70;49.60
6256;DHT22;3161;48.794;9.784;2023-05-29T12:12:59;27.80;49.80
6256;DHT22;3161;48.794;9.784;2023-05-29T12:15:24;27.80;47.60
6256;DHT22;3161;48.794;9.784;2023-05-29T12:17:53;28.00;49.00
6256;DHT22;3161;48.794;9.784;2023-05-29T12:20:23;28.10;47.80
6256;DHT22;3161;48.794;9.784;2023-05-29T12:22:52;28.10;47.80
6256;DHT22;3161;48.794;9.784;2023-05-29T12:25:21;28.10;47.60
6256;DHT22;3161;48.794;9.784;2023-05-29T12:27:49;28.00;48.50
6256;DHT22;3161;48.794;9.784;2023-05-29T12:33:31;28.10;47.40
6256;DHT22;3161;48.794;9.784;2023-05-29T12:36:06;28.20;47.00
6256;DHT22;3161;48.794;9.784;2023-05-29T12:38:46;28.20;48.10
6256;DHT22;3161;48.794;9.784;2023-05-29T12:41:26;28.40;46.00
6256;DHT22;3161;48.794;9.784;2023-05-29T12:43:56;28.80;47.60
6256;DHT22;3161;48.794;9.784;2023-05-29T12:46:34;29.50;45.80
6256;DHT22;3161;48.794;9.784;2023-05-29T12:48:57;30.30;44.70
6256;DHT22;3161;48.794;9.784;2023-05-29T12:51:36;30.90;43.90
6256;DHT22;3161;48.794;9.784;2023-05-29T12:54:05;31.70;44.10
6256;DHT22;3161;48.794;9.784;2023-05-29T12:56:32;32.60;41.50
6256;DHT22;3161;48.794;9.784;2023-05-29T12:59:00;33.30;40.50
6256;DHT22;3161;48.794;9.784;2023-05-29T13:01:27;33.60;39.30
6256;DHT22;3161;48.794;9.784;2023-05-29T13:03:55;33.50;38.80
6256;DHT22;3161;48.794;9.784;2023-05-29T13:06:23;33.40;40.00
6256;DHT22;3161;48.794;9.784;2023-05-29T13:08:51;33.30;39.50
6256;DHT22;3161;48.794;9.784;2023-05-29T13:11:19;33.20;37.10
6256;DHT22;3161;48.794;9.784;2023-05-29T13:13:48;32.90;36.20
6256;DHT22;3161;48.794;9.784;2023-05-29T13:16:16;32.90;39.40
6256;DHT22;3161;48.794;9.784;2023-05-29T13:18:44;32.80;38.30
6256;DHT22;3161;48.794;9.784;2023-05-29T13:21:12;32.90;39.30
6256;DHT22;3161;48.794;9.784;2023-05-29T13:23:39;33.00;38.70
6256;DHT22;3161;48.794;9.784;2023-05-29T13:28:54;33.70;36.90
6256;DHT22;3161;48.794;9.784;2023-05-29T13:31:21;34.20;37.50
6256;DHT22;3161;48.794;9.784;2023-05-29T13:33:49;34.20;36.50
6256;DHT22;3161;48.794;9.784;2023-05-29T13:36:16;34.30;34.40
6256;DHT22;3161;48.794;9.784;2023-05-29T13:38:44;34.50;35.90
6256;DHT22;3161;48.794;9.784;2023-05-29T13:41:12;34.80;35.70
6256;DHT22;3161;48.794;9.784;2023-05-29T13:43:40;35.20;35.80
6256;DHT22;3161;48.794;9.784;2023-05-29T13:46:07;35.50;33.50
6256;DHT22;3161;48.794;9.784;2023-05-29T13:48:35;35.60;32.90
6256;DHT22;3161;48.794;9.784;2023-05-29T13:51:02;35.50;30.90
6256;DHT22;3161;48.794;9.784;2023-05-29T13:53:30;35.20;34.70
6256;DHT22;3161;48.794;9.784;2023-05-29T13:55:57;34.70;33.80
6256;DHT22;3161;48.794;9.784;2023-05-29T13:58:25;34.10;35.60
6256;DHT22;3161;48.794;9.784;2023-05-29T14:00:52;33.40;33.40
6256;DHT22;3161;48.794;9.784;2023-05-29T14:03:21;32.60;32.30
6256;DHT22;3161;48.794;9.784;2023-05-29T14:05:50;31.90;33.80
6256;DHT22;3161;48.794;9.784;2023-05-29T14:08:17;31.40;35.30
6256;DHT22;3161;48.794;9.784;2023-05-29T14:10:45;31.00;35.90
6256;DHT22;3161;48.794;9.784;2023-05-29T14:13:12;30.70;36.40
6256;DHT22;3161;48.794;9.784;2023-05-29T14:15:40;30.50;36.90
6256;DHT22;3161;48.794;9.784;2023-05-29T14:18:07;30.30;37.50
6256;DHT22;3161;48.794;9.784;2023-05-29T14:20:35;30.10;36.80
6256;DHT22;3161;48.794;9.784;2023-05-29T14:23:03;29.90;37.20
6256;DHT22;3161;48.794;9.784;2023-05-29T14:25:30;29.70;36.60
6256;DHT22;3161;48.794;9.784;2023-05-29T14:27:58;29.50;36.00
6256;DHT22;3161;48.794;9.784;2023-05-29T14:30:26;29.30;37.00
6256;DHT22;3161;48.794;9.784;2023-05-29T14:32:53;29.20;37.00
6256;DHT22;3161;48.794;9.784;2023-05-29T14:35:23;29.10;38.30
6256;DHT22;3161;48.794;9.784;2023-05-29T14:37:50;28.90;38.00
6256;DHT22;3161;48.794;9.784;2023-05-29T14:40:18;28.70;38.00
6256;DHT22;3161;48.794;9.784;2023-05-29T14:42:45;28.60;37.30
6256;DHT22;3161;48.794;9.784;2023-05-29T14:45:13;28.50;39.00
6256;DHT22;3161;48.794;9.784;2023-05-29T14:47:41;28.40;37.60
6256;DHT22;3161;48.794;9.784;2023-05-29T14:50:09;28.30;37.10
6256;DHT22;3161;48.794;9.784;2023-05-29T14:52:38;28.20;39.70
6256;DHT22;3161;48.794;9.784;2023-05-29T14:55:05;28.20;40.30
6256;DHT22;3161;48.794;9.784;2023-05-29T14:57:33;28.20;38.30
6256;DHT22;3161;48.794;9.784;2023-05-29T15:00:02;28.10;40.00
6256;DHT22;3161;48.794;9.784;2023-05-29T15:02:31;28.10;39.80
6256;DHT22;3161;48.794;9.784;2023-05-29T15:04:59;28.10;38.60
6256;DHT22;3161;48.794;9.784;2023-05-29T15:07:27;28.00;39.40
6256;DHT22;3161;48.794;9.784;2023-05-29T15:09:56;27.90;40.60
6256;DHT22;3161;48.794;9.784;2023-05-29T15:12:23;27.90;41.00
6256;DHT22;3161;48.794;9.784;2023-05-29T15:14:52;27.80;40.60
6256;DHT22;3161;48.794;9.784;2023-05-29T15:17:20;27.80;40.70
6256;DHT22;3161;48.794;9.784;2023-05-29T15:19:48;27.70;41.00
6256;DHT22;3161;48.794;9.784;2023-05-29T15:22:15;27.70;40.40
6256;DHT22;3161;48.794;9.784;2023-05-29T15:24:43;27.70;40.00
6256;DHT22;3161;48.794;9.784;2023-05-29T15:27:10;27.60;41.80
6256;DHT22;3161;48.794;9.784;2023-05-29T15:29:41;27.60;40.70
6256;DHT22;3161;48.794;9.784;2023-05-29T15:32:09;27.50;40.10
6256;DHT22;3161;48.794;9.784;2023-05-29T15:34:36;27.50;40.20
6256;DHT22;3161;48.794;9.784;2023-05-29T15:37:05;27.50;39.10
6256;DHT22;3161;48.794;9.784;2023-05-29T15:39:33;27.40;41.00
6256;DHT22;3161;48.794;9.784;2023-05-29T15:42:01;27.30;41.30
6256;DHT22;3161;48.794;9.784;2023-05-29T15:44:28;27.30;41.80
6256;DHT22;3161;48.794;9.784;2023-05-29T15:46:56;27.20;39.60
6256;DHT22;3161;48.794;9.784;2023-05-29T15:49:23;27.20;39.40
6256;DHT22;3161;48.794;9.784;2023-05-29T15:51:51;27.10;40.90
6256;DHT22;3161;48.794;9.784;2023-05-29T15:54:18;27.10;40.60
6256;DHT22;3161;48.794;9.784;2023-05-29T15:57:05;27.00;41.40
6256;DHT22;3161;48.794;9.784;2023-05-29T15:59:33;27.00;40.80
6256;DHT22;3161;48.794;9.784;2023-05-29T16:02:02;27.00;40.40
6256;DHT22;3161;48.794;9.784;2023-05-29T16:04:30;26.90;40.90
6256;DHT22;3161;48.794;9.784;2023-05-29T16:06:58;26.90;40.90
6256;DHT22;3161;48.794;9.784;2023-05-29T16:09:27;26.80;40.10
6256;DHT22;3161;48.794;9.784;2023-05-29T16:11:55;26.80;40.50
6256;DHT22;3161;48.794;9.784;2023-05-29T16:14:23;26.70;40.20
6256;DHT22;3161;48.794;9.784;2023-05-29T16:16:50;26.70;41.40
6256;DHT22;3161;48.794;9.784;2023-05-29T16:19:18;26.60;41.80
6256;DHT22;3161;48.794;9.784;2023-05-29T16:21:46;26.60;41.10
6256;DHT22;3161;48.794;9.784;2023-05-29T16:24:13;26.60;41.30
6256;DHT22;3161;48.794;9.784;2023-05-29T16:26:41;26.50;41.70
6256;DHT22;3161;48.794;9.784;2023-05-29T16:29:08;26.50;41.20
6256;DHT22;3161;48.794;9.784;2023-05-29T16:31:36;26.40;40.50
6256;DHT22;3161;48.794;9.784;2023-05-29T16:34:04;26.40;40.40
6256;DHT22;3161;48.794;9.784;2023-05-29T16:36:32;26.30;41.20
6256;DHT22;3161;48.794;9.784;2023-05-29T16:38:59;26.30;41.30